createdAt,value
2022-11-13T00:02:00.343Z,96.37
2022-11-13T00:05:21.504Z,97.05
2022-11-13T00:08:42.799Z,98.89
2022-11-13T00:12:04.152Z,99.61
2022-11-13T00:15:25.237Z,98.80
2022-11-13T00:18:47.309Z,99.11
2022-11-13T00:22:08.442Z,99.44
2022-11-13T00:25:29.231Z,99.70
2022-11-13T00:29:02.933Z,100.00
2022-11-13T00:32:24.112Z,99.48
2022-11-13T00:35:45.449Z,99.07
2022-11-13T00:39:06.871Z,98.03
2022-11-13T00:42:28.184Z,97.60
2022-11-13T00:45:49.410Z,98.17
2022-11-13T00:49:10.600Z,97.82
2022-11-13T00:52:31.440Z,97.67
2022-11-13T00:55:52.474Z,97.16
2022-11-13T00:59:13.433Z,97.72
2022-11-13T01:02:34.432Z,96.94
2022-11-13T01:05:55.404Z,96.67
2022-11-13T01:09:16.704Z,97.57
2022-11-13T01:12:37.892Z,96.84
2022-11-13T01:15:58.961Z,96.85
2022-11-13T01:19:19.762Z,96.73
2022-11-13T01:22:40.651Z,97.45
2022-11-13T01:26:07.009Z,97.40
2022-11-13T01:29:28.071Z,97.02
2022-11-13T01:32:49.119Z,97.10
2022-11-13T01:36:19.106Z,96.87
2022-11-13T01:39:40.655Z,97.36
2022-11-13T01:43:32.614Z,97.46
2022-11-13T01:46:56.709Z,96.89
2022-11-13T01:50:17.999Z,96.06
2022-11-13T01:53:43.607Z,95.88
2022-11-13T01:57:05.630Z,95.27
2022-11-13T02:00:26.720Z,95.30
2022-11-13T02:03:48.106Z,96.43
2022-11-13T02:07:13.056Z,96.77
2022-11-13T02:10:34.433Z,97.48
2022-11-13T02:13:55.429Z,97.37
2022-11-13T02:17:33.146Z,96.91
2022-11-13T02:21:17.702Z,98.12
2022-11-13T02:24:45.018Z,98.31
2022-11-13T02:28:06.655Z,98.33
2022-11-13T02:31:27.906Z,98.61
2022-11-13T02:34:49.171Z,97.50
2022-11-13T02:38:10.059Z,97.46
2022-11-13T02:41:31.376Z,96.54
2022-11-13T02:44:52.681Z,96.14
2022-11-13T02:48:13.610Z,97.54
2022-11-13T02:51:34.525Z,98.16
2022-11-13T02:54:55.242Z,97.83
2022-11-13T02:58:16.100Z,97.86
2022-11-13T03:01:37.092Z,96.68
2022-11-13T03:05:11.992Z,96.72
2022-11-13T03:08:35.366Z,96.98
2022-11-13T03:11:56.932Z,96.32
2022-11-13T03:15:17.875Z,96.19
2022-11-13T03:18:38.830Z,96.20
2022-11-13T03:21:59.958Z,95.95
2022-11-13T03:25:20.869Z,96.62
2022-11-13T03:28:42.021Z,97.51
2022-11-13T03:32:03.412Z,97.48
2022-11-13T03:35:26.655Z,97.53
2022-11-13T03:38:51.006Z,98.33
2022-11-13T03:42:12.018Z,97.99
2022-11-13T03:45:32.918Z,98.70
2022-11-13T03:48:57.003Z,99.22
2022-11-13T03:52:18.173Z,100.00
2022-11-13T03:55:39.647Z,100.00
2022-11-13T03:59:03.829Z,100.00
2022-11-13T04:02:24.893Z,100.00
2022-11-13T04:05:48.941Z,100.00
2022-11-13T04:09:09.897Z,100.00
2022-11-13T04:12:30.947Z,100.00
2022-11-13T04:15:51.990Z,100.00
2022-11-13T04:19:12.917Z,99.40
2022-11-13T04:22:34.177Z,99.41
2022-11-13T04:25:55.177Z,99.27
2022-11-13T04:29:20.810Z,99.58
2022-11-13T04:32:42.200Z,99.67
2022-11-13T04:36:03.578Z,99.49
2022-11-13T04:39:24.730Z,98.90
2022-11-13T04:42:51.612Z,98.96
2022-11-13T04:46:12.646Z,98.91
2022-11-13T04:49:33.942Z,98.71
2022-11-13T04:52:54.788Z,98.50
2022-11-13T04:56:15.835Z,99.00
2022-11-13T04:59:36.796Z,99.39
2022-11-13T05:02:57.767Z,99.77
2022-11-13T05:06:19.050Z,99.18
2022-11-13T05:09:39.988Z,98.82
2022-11-13T05:13:00.965Z,98.62
2022-11-13T05:16:21.883Z,98.24
2022-11-13T05:19:42.857Z,98.90
2022-11-13T05:23:03.939Z,99.24
2022-11-13T05:26:26.372Z,99.29
2022-11-13T05:29:47.627Z,99.51
2022-11-13T05:33:09.079Z,98.82
2022-11-13T05:36:30.146Z,99.14
2022-11-13T05:39:51.412Z,98.68
2022-11-13T05:43:12.569Z,98.21
2022-11-13T05:46:33.430Z,98.84
2022-11-13T05:49:54.588Z,98.85
2022-11-13T05:53:15.451Z,98.46
2022-11-13T05:56:37.326Z,98.26
2022-11-13T05:59:58.598Z,98.29
2022-11-13T06:03:19.765Z,98.12
2022-11-13T06:06:41.135Z,98.17
2022-11-13T06:10:02.501Z,98.33
2022-11-13T06:13:23.315Z,98.76
2022-11-13T06:16:44.249Z,98.44
2022-11-13T06:20:05.450Z,98.99
2022-11-13T06:23:26.402Z,99.12
2022-11-13T06:26:47.254Z,98.83
2022-11-13T06:30:09.602Z,99.40
2022-11-13T06:33:31.073Z,98.87
2022-11-13T06:36:51.936Z,98.06
2022-11-13T06:40:13.749Z,98.57
2022-11-13T06:43:35.232Z,99.13
2022-11-13T06:46:56.190Z,100.00
2022-11-13T06:50:17.288Z,100.00
2022-11-13T06:53:38.479Z,100.00
2022-11-13T06:56:59.752Z,100.00
2022-11-13T07:00:20.811Z,100.00
2022-11-13T07:03:42.676Z,100.00
2022-11-13T07:07:04.413Z,100.00
2022-11-13T07:10:26.834Z,100.00
2022-11-13T07:13:48.342Z,100.00
2022-11-13T07:17:10.583Z,100.00
2022-11-13T07:20:33.128Z,100.00
2022-11-13T07:23:53.937Z,100.00
2022-11-13T07:27:15.040Z,100.00
2022-11-13T07:30:36.004Z,100.00
2022-11-13T07:33:57.312Z,100.00
2022-11-13T07:37:18.552Z,100.00
2022-11-13T07:40:39.402Z,100.00
2022-11-13T07:44:00.489Z,100.00
2022-11-13T07:47:21.416Z,100.00
2022-11-13T07:50:42.570Z,100.00
2022-11-13T07:54:04.598Z,100.00
2022-11-13T07:57:27.256Z,100.00
2022-11-13T08:00:49.143Z,100.00
2022-11-13T08:04:10.161Z,100.00
2022-11-13T08:07:31.357Z,100.00
2022-11-13T08:10:52.582Z,100.00
2022-11-13T08:14:13.772Z,100.00
2022-11-13T08:17:34.918Z,100.00
2022-11-13T08:20:56.438Z,100.00
2022-11-13T08:24:17.781Z,99.75
2022-11-13T08:27:38.880Z,99.24
2022-11-13T08:31:00.210Z,97.98
2022-11-13T08:34:21.209Z,98.05
2022-11-13T08:37:42.311Z,96.99
2022-11-13T08:41:08.910Z,95.57
2022-11-13T08:44:31.283Z,95.20
2022-11-13T08:47:52.527Z,95.51
2022-11-13T08:51:13.627Z,94.68
2022-11-13T08:54:34.751Z,93.55
2022-11-13T08:58:00.175Z,93.76
2022-11-13T09:01:23.419Z,93.52
2022-11-13T09:04:44.330Z,92.29
2022-11-13T09:08:06.240Z,91.42
2022-11-13T09:11:29.639Z,89.48
2022-11-13T09:14:50.479Z,89.45
2022-11-13T09:18:11.468Z,89.25
2022-11-13T09:21:32.418Z,89.46
2022-11-13T09:24:53.714Z,88.81
2022-11-13T09:28:14.973Z,89.24
2022-11-13T09:31:39.403Z,88.85
2022-11-13T09:35:00.359Z,88.14
2022-11-13T09:38:21.637Z,88.37
2022-11-13T09:41:50.012Z,88.34
2022-11-13T09:45:15.054Z,87.55
2022-11-13T09:48:42.496Z,87.31
2022-11-13T09:52:14.476Z,86.35
2022-11-13T09:55:45.516Z,86.24
2022-11-13T09:59:40.674Z,86.47
2022-11-13T10:03:39.069Z,86.36
2022-11-13T10:07:18.839Z,85.70
2022-11-13T10:10:56.324Z,84.67
2022-11-13T10:14:26.401Z,84.89
2022-11-13T10:18:00.490Z,83.76
2022-11-13T10:21:37.217Z,83.59
2022-11-13T10:25:05.393Z,83.70
2022-11-13T10:28:49.557Z,83.53
2022-11-13T10:32:20.642Z,84.10
2022-11-13T10:35:56.334Z,83.86
2022-11-13T10:39:17.265Z,82.74
2022-11-13T10:42:41.386Z,82.78
2022-11-13T10:46:05.628Z,82.40
2022-11-13T10:49:29.170Z,81.81
2022-11-13T10:52:52.070Z,81.74
2022-11-13T10:56:29.523Z,81.10
2022-11-13T10:59:50.722Z,80.61
2022-11-13T11:03:23.441Z,80.11
2022-11-13T11:10:34.462Z,77.48
2022-11-13T11:14:16.103Z,78.62
2022-11-13T11:17:54.572Z,76.88
2022-11-13T11:21:21.276Z,76.50
2022-11-13T11:24:52.622Z,76.11
2022-11-13T11:28:26.045Z,76.92
2022-11-13T11:31:56.377Z,75.43
2022-11-13T11:35:43.683Z,75.92
2022-11-13T11:39:19.771Z,74.81
2022-11-13T11:43:06.851Z,75.77
2022-11-13T11:46:29.689Z,75.72
2022-11-13T11:49:51.583Z,74.83
2022-11-13T11:53:20.368Z,75.27
2022-11-13T11:56:58.052Z,74.19
2022-11-13T12:00:31.180Z,73.15
2022-11-13T12:04:19.725Z,72.76
2022-11-13T12:08:00.743Z,73.35
2022-11-13T12:11:33.889Z,73.43
2022-11-13T12:15:03.823Z,71.57
2022-11-13T12:18:33.211Z,71.75
2022-11-13T12:22:06.813Z,71.95
2022-11-13T12:25:42.055Z,72.57
2022-11-13T12:29:33.848Z,72.55
2022-11-13T12:33:06.831Z,72.62
2022-11-13T12:36:28.863Z,72.18
2022-11-13T12:40:20.098Z,73.26
2022-11-13T12:44:10.468Z,72.46
2022-11-13T12:47:35.055Z,72.70
2022-11-13T12:50:59.371Z,72.63
2022-11-13T12:54:34.879Z,72.59
2022-11-13T12:58:05.323Z,72.95
2022-11-13T13:01:32.747Z,73.47
2022-11-13T13:05:15.882Z,73.36
2022-11-13T13:09:01.204Z,73.51
2022-11-13T13:13:23.941Z,74.69
2022-11-13T13:16:45.908Z,74.70
2022-11-13T13:20:12.975Z,74.72
2022-11-13T13:23:37.177Z,74.76
2022-11-13T13:26:58.122Z,74.82
2022-11-13T13:30:26.282Z,74.73
2022-11-13T13:34:08.149Z,74.46
2022-11-13T13:37:38.328Z,75.49
2022-11-13T13:41:24.689Z,75.40
2022-11-13T13:45:04.369Z,75.39
2022-11-13T13:48:29.199Z,75.45
2022-11-13T13:51:56.532Z,75.71
2022-11-13T13:55:31.513Z,75.52
2022-11-13T13:58:53.833Z,76.35
2022-11-13T14:02:23.540Z,77.24
2022-11-13T14:05:44.802Z,77.33
2022-11-13T14:09:18.598Z,78.05
2022-11-13T14:12:45.089Z,77.21
2022-11-13T14:16:07.580Z,77.44
2022-11-13T14:19:28.739Z,77.50
2022-11-13T14:22:56.509Z,77.46
2022-11-13T14:26:19.824Z,78.18
2022-11-13T14:29:53.594Z,77.98
2022-11-13T14:33:17.974Z,78.77
2022-11-13T14:36:40.831Z,79.30
2022-11-13T14:40:18.947Z,79.68
2022-11-13T14:43:49.901Z,80.29
2022-11-13T14:47:26.183Z,81.01
2022-11-13T14:50:57.696Z,82.03
2022-11-13T14:58:30.516Z,83.49
2022-11-13T15:01:56.650Z,84.10
2022-11-13T15:05:17.567Z,84.63
2022-11-13T15:08:38.995Z,84.70
2022-11-13T15:12:00.658Z,85.58
2022-11-13T15:15:27.075Z,86.15
2022-11-13T15:18:57.582Z,87.30
2022-11-13T15:22:27.628Z,88.33
2022-11-13T15:25:49.655Z,89.19
2022-11-13T15:29:12.283Z,89.60
2022-11-13T15:32:33.968Z,90.08
2022-11-13T15:35:55.027Z,90.40
2022-11-13T15:39:23.401Z,90.58
2022-11-13T15:42:46.506Z,91.17
2022-11-13T15:46:14.703Z,91.77
2022-11-13T15:49:36.025Z,93.08
2022-11-13T15:53:02.343Z,93.52
2022-11-13T15:56:27.750Z,94.15
2022-11-13T15:59:49.215Z,94.28
2022-11-13T16:03:12.186Z,94.75
2022-11-13T16:06:36.502Z,95.52
2022-11-13T16:09:57.564Z,95.31
2022-11-13T16:13:18.766Z,95.36
2022-11-13T16:16:41.146Z,95.71
2022-11-13T16:20:04.460Z,96.59
2022-11-13T16:23:25.947Z,96.86
2022-11-13T16:26:57.019Z,96.67
2022-11-13T16:30:21.239Z,97.35
2022-11-13T16:33:43.087Z,97.93
2022-11-13T16:37:04.181Z,98.19
2022-11-13T16:40:26.926Z,97.94
2022-11-13T16:43:48.236Z,98.10
2022-11-13T16:47:26.279Z,98.15
2022-11-13T16:50:47.690Z,98.67
2022-11-13T16:54:09.413Z,99.33
2022-11-13T16:57:30.506Z,99.47
2022-11-13T17:00:54.975Z,99.90
2022-11-13T17:04:20.366Z,100.00
2022-11-13T17:07:41.791Z,100.00
2022-11-13T17:11:03.117Z,100.00
2022-11-13T17:14:24.296Z,100.00
2022-11-13T17:17:46.222Z,100.00
2022-11-13T17:21:07.683Z,100.00
2022-11-13T17:24:28.801Z,100.00
2022-11-13T17:27:51.084Z,100.00
2022-11-13T17:31:12.878Z,100.00
2022-11-13T17:34:33.853Z,100.00
2022-11-13T17:37:55.677Z,100.00
2022-11-13T17:41:17.858Z,100.00
2022-11-13T17:44:39.131Z,100.00
2022-11-13T17:48:00.227Z,100.00
2022-11-13T17:51:21.950Z,100.00
2022-11-13T17:54:43.105Z,100.00
2022-11-13T17:58:04.589Z,100.00
2022-11-13T18:01:25.711Z,100.00
2022-11-13T18:04:47.238Z,100.00
2022-11-13T18:08:08.348Z,100.00
2022-11-13T18:11:30.694Z,100.00
2022-11-13T18:14:55.117Z,100.00
2022-11-13T18:18:16.421Z,100.00
2022-11-13T18:21:37.940Z,100.00
2022-11-13T18:25:01.525Z,100.00
2022-11-13T18:28:23.216Z,100.00
2022-11-13T18:31:45.084Z,100.00
2022-11-13T18:35:06.968Z,100.00
2022-11-13T18:38:29.218Z,100.00
2022-11-13T18:41:50.671Z,100.00
2022-11-13T18:45:11.925Z,100.00
2022-11-13T18:48:35.959Z,100.00
2022-11-13T18:51:57.517Z,100.00
2022-11-13T18:55:18.808Z,100.00
2022-11-13T18:58:41.957Z,100.00
2022-11-13T19:02:03.238Z,100.00
2022-11-13T19:05:24.604Z,100.00
2022-11-13T19:08:46.908Z,100.00
2022-11-13T19:12:08.351Z,100.00
2022-11-13T19:15:31.701Z,100.00
2022-11-13T19:19:00.747Z,100.00
2022-11-13T19:22:22.108Z,100.00
2022-11-13T19:25:43.985Z,100.00
2022-11-13T19:29:05.586Z,100.00
2022-11-13T19:32:27.698Z,100.00
2022-11-13T19:35:50.495Z,100.00
2022-11-13T19:39:11.877Z,100.00
2022-11-13T19:42:36.125Z,100.00
2022-11-13T19:46:09.138Z,100.00
2022-11-13T19:49:30.465Z,100.00
2022-11-13T19:52:51.695Z,100.00
2022-11-13T19:56:19.229Z,100.00
2022-11-13T19:59:40.369Z,100.00
2022-11-13T20:03:06.526Z,100.00
2022-11-13T20:06:31.663Z,100.00
2022-11-13T20:09:53.257Z,100.00
2022-11-13T20:13:14.598Z,100.00
2022-11-13T20:16:35.738Z,100.00
2022-11-13T20:19:57.575Z,100.00
2022-11-13T20:23:18.722Z,100.00
2022-11-13T20:26:39.846Z,100.00
2022-11-13T20:30:01.355Z,100.00
2022-11-13T20:33:23.090Z,100.00
2022-11-13T20:36:45.710Z,100.00
2022-11-13T20:40:08.126Z,100.00
2022-11-13T20:43:29.450Z,100.00
2022-11-13T20:46:52.171Z,100.00
2022-11-13T20:50:14.150Z,100.00
2022-11-13T20:53:40.034Z,100.00
2022-11-13T20:57:01.380Z,100.00
2022-11-13T21:00:23.053Z,100.00
2022-11-13T21:03:45.669Z,100.00
2022-11-13T21:07:06.977Z,100.00
2022-11-13T21:10:28.446Z,100.00
2022-11-13T21:13:49.922Z,100.00
2022-11-13T21:17:10.812Z,100.00
2022-11-13T21:20:37.399Z,100.00
2022-11-13T21:23:59.246Z,100.00
2022-11-13T21:27:20.316Z,100.00
2022-11-13T21:30:43.653Z,100.00
2022-11-13T21:34:05.765Z,100.00
2022-11-13T21:37:26.952Z,100.00
2022-11-13T21:41:08.294Z,100.00
2022-11-13T21:44:29.528Z,100.00
2022-11-13T21:47:52.852Z,100.00
2022-11-13T21:51:14.656Z,100.00
2022-11-13T21:54:35.731Z,100.00
2022-11-13T21:57:57.864Z,100.00
2022-11-13T22:01:19.299Z,100.00
2022-11-13T22:04:40.343Z,100.00
2022-11-13T22:08:01.107Z,100.00
2022-11-13T22:11:23.066Z,100.00
2022-11-13T22:14:44.086Z,100.00
2022-11-13T22:18:05.567Z,100.00
2022-11-13T22:21:28.453Z,100.00
2022-11-13T22:24:49.461Z,100.00
2022-11-13T22:28:10.588Z,100.00
2022-11-13T22:31:33.686Z,100.00
2022-11-13T22:34:54.650Z,100.00
2022-11-13T22:38:16.711Z,100.00
2022-11-13T22:41:37.737Z,100.00
2022-11-13T22:44:58.946Z,100.00
2022-11-13T22:48:20.045Z,100.00
2022-11-13T22:51:41.690Z,100.00
2022-11-13T22:55:02.966Z,100.00
2022-11-13T22:58:24.129Z,100.00
2022-11-13T23:01:46.399Z,100.00
2022-11-13T23:05:07.663Z,100.00
2022-11-13T23:08:30.620Z,100.00
2022-11-13T23:11:52.671Z,100.00
2022-11-13T23:15:13.651Z,100.00
2022-11-13T23:18:34.437Z,100.00
2022-11-13T23:21:55.087Z,100.00
2022-11-13T23:25:16.056Z,100.00
2022-11-13T23:28:37.736Z,100.00
2022-11-13T23:31:58.906Z,100.00
2022-11-13T23:35:19.847Z,100.00
2022-11-13T23:38:41.532Z,100.00
2022-11-13T23:42:02.595Z,100.00
2022-11-13T23:45:23.598Z,100.00
2022-11-13T23:48:44.414Z,100.00
2022-11-13T23:52:05.345Z,100.00
2022-11-13T23:55:26.260Z,100.00
2022-11-13T23:58:47.311Z,100.00
